AUA9070 LGSA-LOWG
Flight info
| Callsign | AUA9070 |
|---|---|
| Flight time | 2h 1m |
| Altitude | 34000 |
| Route | SOKRI UB1 DDM UM619 YNN UL604 DIMIS DCT ADDER DCT PETAK DCT EMKES DCT ZAG DCT GOLVA GOLVA2M |
| Aircraft | A321/M-SDE3FGHIRWY/LB1 |
Departure
| Time | 2026-04-24 13:03 |
|---|---|
| Airport | Chania International Airport (LGSA) |
Arrival
| Time | 2026-04-24 15:04 |
|---|---|
| Airport | Graz Airport (LOWG) |
| Time | Latitude | Longitude | Altitude | Speed | Heading |
|---|---|---|---|---|---|
| 2026-04-24 12:35 | 35.53859 | 24.14091 | 567 ft | 0 kts | 21° |
| 2026-04-24 12:52 | 35.53855 | 24.14089 | 556 ft | 3 kts | 21° |
| 2026-04-24 12:52 | 35.53830 | 24.14077 | 567 ft | 4 kts | 21° |
| 2026-04-24 12:52 | 35.53809 | 24.14067 | 562 ft | 3 kts | 20° |
| 2026-04-24 12:53 | 35.53786 | 24.14064 | 559 ft | 4 kts | 328° |
| 2026-04-24 12:53 | 35.53771 | 24.14085 | 563 ft | 3 kts | 291° |
| 2026-04-24 12:53 | 35.53767 | 24.14098 | 566 ft | 0 kts | 291° |
| 2026-04-24 12:56 | 35.53770 | 24.14088 | 563 ft | 4 kts | 291° |
| 2026-04-24 12:57 | 35.53781 | 24.14055 | 562 ft | 2 kts | 291° |
| 2026-04-24 12:57 | 35.53792 | 24.14021 | 562 ft | 7 kts | 291° |
| 2026-04-24 12:57 | 35.53816 | 24.13947 | 564 ft | 11 kts | 291° |
| 2026-04-24 12:57 | 35.53836 | 24.13883 | 557 ft | 5 kts | 287° |
| 2026-04-24 12:58 | 35.53815 | 24.13838 | 562 ft | 9 kts | 208° |
| 2026-04-24 12:58 | 35.53763 | 24.13812 | 566 ft | 8 kts | 209° |
| 2026-04-24 12:58 | 35.53760 | 24.13745 | 559 ft | 7 kts | 292° |
| 2026-04-24 12:58 | 35.53785 | 24.13668 | 563 ft | 13 kts | 292° |
| 2026-04-24 12:59 | 35.53817 | 24.13574 | 562 ft | 9 kts | 292° |
| 2026-04-24 12:59 | 35.53811 | 24.13512 | 559 ft | 9 kts | 228° |
| 2026-04-24 12:59 | 35.53763 | 24.13483 | 561 ft | 5 kts | 204° |
| 2026-04-24 12:59 | 35.53759 | 24.13481 | 562 ft | 0 kts | 204° |
| 2026-04-24 13:01 | 35.53723 | 24.13460 | 565 ft | 8 kts | 204° |
| 2026-04-24 13:01 | 35.53687 | 24.13448 | 559 ft | 3 kts | 175° |
| 2026-04-24 13:01 | 35.53665 | 24.13475 | 562 ft | 8 kts | 118° |
| 2026-04-24 13:02 | 35.53644 | 24.13537 | 563 ft | 12 kts | 113° |
| 2026-04-24 13:02 | 35.53526 | 24.13901 | 563 ft | 79 kts | 111° |
| 2026-04-24 13:02 | 35.53251 | 24.14748 | 561 ft | 132 kts | 112° |
| 2026-04-24 13:02 | 35.52864 | 24.15948 | 734 ft | 160 kts | 111° |
| 2026-04-24 13:03 | 35.52463 | 24.17221 | 1389 ft | 160 kts | 108° |
| 2026-04-24 13:03 | 35.52018 | 24.18519 | 1926 ft | 173 kts | 109° |
| 2026-04-24 13:03 | 35.51851 | 24.20035 | 2168 ft | 191 kts | 77° |
| 2026-04-24 13:03 | 35.52551 | 24.21484 | 2327 ft | 213 kts | 41° |
| 2026-04-24 13:04 | 35.53965 | 24.22236 | 2553 ft | 237 kts | 8° |
| 2026-04-24 13:04 | 35.55655 | 24.21909 | 2986 ft | 258 kts | 336° |
| 2026-04-24 13:04 | 35.57061 | 24.20509 | 3723 ft | 268 kts | 306° |
| 2026-04-24 13:04 | 35.57840 | 24.18415 | 4552 ft | 273 kts | 287° |
| 2026-04-24 13:05 | 35.58344 | 24.16160 | 5438 ft | 275 kts | 286° |
| 2026-04-24 13:05 | 35.58805 | 24.13875 | 6358 ft | 275 kts | 285° |
| 2026-04-24 13:05 | 35.59397 | 24.11655 | 7159 ft | 274 kts | 301° |
| 2026-04-24 13:05 | 35.60635 | 24.09890 | 7913 ft | 275 kts | 319° |
| 2026-04-24 13:06 | 35.62075 | 24.08364 | 8660 ft | 279 kts | 317° |
| 2026-04-24 13:06 | 35.63480 | 24.06684 | 9358 ft | 284 kts | 315° |
| 2026-04-24 13:06 | 35.64962 | 24.05076 | 10187 ft | 286 kts | 321° |
| 2026-04-24 13:06 | 35.66606 | 24.03532 | 10437 ft | 309 kts | 322° |
| 2026-04-24 13:07 | 35.68406 | 24.01920 | 10640 ft | 332 kts | 323° |
| 2026-04-24 13:07 | 35.70299 | 24.00209 | 11141 ft | 342 kts | 322° |
| 2026-04-24 13:07 | 35.72215 | 23.98458 | 11685 ft | 345 kts | 322° |
| 2026-04-24 13:07 | 35.74139 | 23.96666 | 12172 ft | 349 kts | 320° |
| 2026-04-24 13:08 | 35.76078 | 23.94843 | 12678 ft | 353 kts | 321° |
| 2026-04-24 13:08 | 35.78043 | 23.92995 | 13165 ft | 357 kts | 321° |
| 2026-04-24 13:08 | 35.80032 | 23.91126 | 13657 ft | 362 kts | 321° |
| 2026-04-24 13:09 | 35.84087 | 23.87308 | 14598 ft | 371 kts | 320° |
| 2026-04-24 13:09 | 35.86137 | 23.85352 | 15088 ft | 374 kts | 320° |
| 2026-04-24 13:09 | 35.88203 | 23.83373 | 15579 ft | 377 kts | 320° |
| 2026-04-24 13:09 | 35.90254 | 23.81402 | 16058 ft | 381 kts | 320° |
| 2026-04-24 13:10 | 35.92355 | 23.79385 | 16529 ft | 385 kts | 320° |
| 2026-04-24 13:10 | 35.94480 | 23.77349 | 16984 ft | 389 kts | 320° |
| 2026-04-24 13:10 | 35.96628 | 23.75293 | 17445 ft | 392 kts | 319° |
| 2026-04-24 13:10 | 35.98801 | 23.73212 | 17905 ft | 397 kts | 320° |
| 2026-04-24 13:11 | 36.00989 | 23.71107 | 18312 ft | 401 kts | 320° |
| 2026-04-24 13:11 | 36.03202 | 23.68977 | 18693 ft | 405 kts | 319° |
| 2026-04-24 13:11 | 36.05427 | 23.66837 | 19118 ft | 406 kts | 319° |
| 2026-04-24 13:11 | 36.07661 | 23.64691 | 19531 ft | 407 kts | 319° |
| 2026-04-24 13:12 | 36.09142 | 23.63268 | 19804 ft | 408 kts | 319° |
| 2026-04-24 13:12 | 36.11383 | 23.61111 | 20210 ft | 409 kts | 319° |
| 2026-04-24 13:12 | 36.13629 | 23.58946 | 20614 ft | 410 kts | 318° |
| 2026-04-24 13:12 | 36.15879 | 23.56773 | 21023 ft | 411 kts | 318° |
| 2026-04-24 13:13 | 36.18862 | 23.53888 | 21561 ft | 412 kts | 318° |
| 2026-04-24 13:13 | 36.21124 | 23.51700 | 21957 ft | 413 kts | 317° |
| 2026-04-24 13:13 | 36.22659 | 23.50224 | 22230 ft | 414 kts | 319° |
| 2026-04-24 13:13 | 36.25120 | 23.48319 | 22623 ft | 421 kts | 329° |
| 2026-04-24 13:14 | 36.27855 | 23.46946 | 23001 ft | 429 kts | 339° |
| 2026-04-24 13:14 | 36.30794 | 23.46146 | 23323 ft | 436 kts | 347° |
| 2026-04-24 13:14 | 36.33798 | 23.45536 | 23652 ft | 439 kts | 346° |
| 2026-04-24 13:14 | 36.36817 | 23.44921 | 23952 ft | 441 kts | 346° |
| 2026-04-24 13:15 | 36.39852 | 23.44298 | 24254 ft | 443 kts | 346° |
| 2026-04-24 13:15 | 36.42902 | 23.43669 | 24551 ft | 446 kts | 346° |
| 2026-04-24 13:15 | 36.45968 | 23.43037 | 24854 ft | 448 kts | 346° |
| 2026-04-24 13:15 | 36.49052 | 23.42400 | 25147 ft | 451 kts | 347° |
| 2026-04-24 13:16 | 36.52156 | 23.41756 | 25421 ft | 453 kts | 347° |
| 2026-04-24 13:16 | 36.55271 | 23.41109 | 25744 ft | 455 kts | 347° |
| 2026-04-24 13:16 | 36.58399 | 23.40459 | 26058 ft | 456 kts | 347° |
| 2026-04-24 13:16 | 36.61533 | 23.39808 | 26361 ft | 458 kts | 347° |
| 2026-04-24 13:17 | 36.64639 | 23.39164 | 26648 ft | 459 kts | 347° |
| 2026-04-24 13:17 | 36.67798 | 23.38512 | 26959 ft | 461 kts | 346° |
| 2026-04-24 13:17 | 36.70968 | 23.37856 | 27253 ft | 463 kts | 346° |
| 2026-04-24 13:17 | 36.74148 | 23.37193 | 27547 ft | 464 kts | 346° |
| 2026-04-24 13:18 | 36.77331 | 23.36528 | 27929 ft | 463 kts | 347° |
| 2026-04-24 13:18 | 36.80509 | 23.35863 | 28299 ft | 463 kts | 346° |
| 2026-04-24 13:18 | 36.83689 | 23.35197 | 28622 ft | 464 kts | 346° |
| 2026-04-24 13:18 | 36.86875 | 23.34529 | 28923 ft | 465 kts | 346° |
| 2026-04-24 13:19 | 36.90066 | 23.33860 | 29199 ft | 466 kts | 346° |
| 2026-04-24 13:19 | 36.93268 | 23.33191 | 29463 ft | 467 kts | 347° |
| 2026-04-24 13:19 | 36.96477 | 23.32522 | 29713 ft | 468 kts | 347° |
| 2026-04-24 13:19 | 36.99693 | 23.31851 | 29966 ft | 468 kts | 348° |
| 2026-04-24 13:20 | 37.02904 | 23.31183 | 30227 ft | 468 kts | 348° |
| 2026-04-24 13:20 | 37.06109 | 23.30515 | 30502 ft | 466 kts | 348° |
| 2026-04-24 13:20 | 37.09304 | 23.29847 | 30767 ft | 465 kts | 348° |
| 2026-04-24 13:20 | 37.12490 | 23.29178 | 31022 ft | 464 kts | 348° |
| 2026-04-24 13:21 | 37.15673 | 23.28510 | 31283 ft | 463 kts | 348° |
| 2026-04-24 13:21 | 37.18806 | 23.27854 | 31529 ft | 462 kts | 348° |
| 2026-04-24 13:21 | 37.21976 | 23.27184 | 31789 ft | 461 kts | 349° |
| 2026-04-24 13:21 | 37.25128 | 23.26515 | 32116 ft | 458 kts | 349° |
| 2026-04-24 13:22 | 37.28262 | 23.25848 | 32418 ft | 456 kts | 348° |
| 2026-04-24 13:22 | 37.31385 | 23.25186 | 32683 ft | 454 kts | 349° |
| 2026-04-24 13:22 | 37.34499 | 23.24525 | 32925 ft | 453 kts | 349° |
| 2026-04-24 13:22 | 37.37607 | 23.23865 | 33166 ft | 453 kts | 350° |
| 2026-04-24 13:23 | 37.40712 | 23.23210 | 33397 ft | 452 kts | 349° |
| 2026-04-24 13:23 | 37.43801 | 23.22510 | 33636 ft | 450 kts | 345° |
| 2026-04-24 13:23 | 37.46777 | 23.21314 | 33896 ft | 449 kts | 337° |
| 2026-04-24 13:23 | 37.49552 | 23.19548 | 33988 ft | 445 kts | 328° |
| 2026-04-24 13:24 | 37.54415 | 23.14813 | 34005 ft | 441 kts | 320° |
| 2026-04-24 13:24 | 37.59143 | 23.09891 | 34005 ft | 440 kts | 322° |
| 2026-04-24 13:25 | 37.63871 | 23.04977 | 34005 ft | 441 kts | 322° |
| 2026-04-24 13:25 | 37.68596 | 23.00045 | 34005 ft | 441 kts | 322° |
| 2026-04-24 13:26 | 37.73320 | 22.95108 | 33996 ft | 441 kts | 322° |
| 2026-04-24 13:26 | 37.78042 | 22.90160 | 34001 ft | 441 kts | 322° |
| 2026-04-24 13:27 | 37.82761 | 22.85203 | 34001 ft | 441 kts | 322° |
| 2026-04-24 13:27 | 37.87477 | 22.80241 | 34011 ft | 441 kts | 322° |
| 2026-04-24 13:28 | 37.92197 | 22.75279 | 34009 ft | 441 kts | 323° |
| 2026-04-24 13:28 | 37.96902 | 22.70308 | 34023 ft | 440 kts | 323° |
| 2026-04-24 13:29 | 38.01561 | 22.65370 | 34018 ft | 439 kts | 323° |
| 2026-04-24 13:29 | 38.06251 | 22.60421 | 34025 ft | 438 kts | 323° |
| 2026-04-24 13:30 | 38.10927 | 22.55475 | 34026 ft | 437 kts | 323° |
| 2026-04-24 13:30 | 38.15591 | 22.50519 | 34024 ft | 437 kts | 323° |
| 2026-04-24 13:31 | 38.20245 | 22.45559 | 34005 ft | 437 kts | 323° |
| 2026-04-24 13:31 | 38.24899 | 22.40600 | 34016 ft | 436 kts | 323° |
| 2026-04-24 13:32 | 38.29543 | 22.35644 | 34019 ft | 435 kts | 323° |
| 2026-04-24 13:32 | 38.34176 | 22.30682 | 34020 ft | 435 kts | 323° |
| 2026-04-24 13:33 | 38.38806 | 22.25719 | 34020 ft | 435 kts | 323° |
| 2026-04-24 13:33 | 38.43435 | 22.20761 | 34020 ft | 434 kts | 323° |
| 2026-04-24 13:34 | 38.48056 | 22.15795 | 34018 ft | 434 kts | 323° |
| 2026-04-24 13:34 | 38.52669 | 22.10831 | 34012 ft | 433 kts | 323° |
| 2026-04-24 13:35 | 38.57270 | 22.05867 | 34011 ft | 433 kts | 323° |
| 2026-04-24 13:35 | 38.61864 | 22.00895 | 34015 ft | 432 kts | 323° |
| 2026-04-24 13:36 | 38.66449 | 21.95925 | 34013 ft | 432 kts | 323° |
| 2026-04-24 13:36 | 38.71035 | 21.90962 | 34002 ft | 431 kts | 323° |
| 2026-04-24 13:37 | 38.75625 | 21.86020 | 34003 ft | 431 kts | 323° |
| 2026-04-24 13:37 | 38.80205 | 21.81078 | 33993 ft | 430 kts | 323° |
| 2026-04-24 13:38 | 38.84779 | 21.76119 | 33972 ft | 431 kts | 323° |
| 2026-04-24 13:38 | 38.89344 | 21.71151 | 33974 ft | 430 kts | 323° |
| 2026-04-24 13:39 | 38.93912 | 21.66182 | 33981 ft | 430 kts | 323° |
| 2026-04-24 13:39 | 38.98472 | 21.61208 | 33982 ft | 430 kts | 323° |
| 2026-04-24 13:40 | 39.03037 | 21.56239 | 33981 ft | 430 kts | 323° |
| 2026-04-24 13:40 | 39.07568 | 21.51291 | 33978 ft | 430 kts | 323° |
| 2026-04-24 13:41 | 39.12123 | 21.46293 | 33974 ft | 430 kts | 323° |
| 2026-04-24 13:41 | 39.16683 | 21.41289 | 33986 ft | 431 kts | 323° |
| 2026-04-24 13:42 | 39.21243 | 21.36283 | 33985 ft | 431 kts | 323° |
| 2026-04-24 13:42 | 39.25798 | 21.31268 | 33986 ft | 430 kts | 323° |
| 2026-04-24 13:43 | 39.30346 | 21.26251 | 33981 ft | 430 kts | 323° |
| 2026-04-24 13:43 | 39.34893 | 21.21229 | 33980 ft | 430 kts | 323° |
| 2026-04-24 13:44 | 39.39434 | 21.16208 | 33972 ft | 430 kts | 323° |
| 2026-04-24 13:44 | 39.43979 | 21.11172 | 33961 ft | 430 kts | 323° |
| 2026-04-24 13:45 | 39.48526 | 21.06120 | 33967 ft | 431 kts | 323° |
| 2026-04-24 13:45 | 39.53071 | 21.01055 | 33970 ft | 431 kts | 323° |
| 2026-04-24 13:46 | 39.57618 | 20.95983 | 33972 ft | 431 kts | 323° |
| 2026-04-24 13:46 | 39.62167 | 20.90913 | 33970 ft | 431 kts | 323° |
| 2026-04-24 13:47 | 39.66708 | 20.85831 | 33965 ft | 431 kts | 323° |
| 2026-04-24 13:47 | 39.71506 | 20.81258 | 33961 ft | 425 kts | 336° |
| 2026-04-24 13:48 | 39.76811 | 20.78040 | 33953 ft | 424 kts | 338° |
| 2026-04-24 13:48 | 39.82158 | 20.74792 | 33964 ft | 425 kts | 338° |
| 2026-04-24 13:49 | 39.87508 | 20.71527 | 33970 ft | 424 kts | 338° |
| 2026-04-24 13:49 | 39.92850 | 20.68269 | 33964 ft | 424 kts | 339° |
| 2026-04-24 13:50 | 39.98206 | 20.65005 | 33962 ft | 425 kts | 339° |
| 2026-04-24 13:50 | 40.03568 | 20.61734 | 33958 ft | 426 kts | 339° |
| 2026-04-24 13:51 | 40.08925 | 20.58441 | 33963 ft | 426 kts | 338° |
| 2026-04-24 13:51 | 40.14252 | 20.55052 | 33957 ft | 426 kts | 338° |
| 2026-04-24 13:52 | 40.19563 | 20.51618 | 33962 ft | 425 kts | 338° |
| 2026-04-24 13:52 | 40.24871 | 20.48199 | 33952 ft | 425 kts | 338° |
| 2026-04-24 13:53 | 40.30184 | 20.44791 | 33952 ft | 426 kts | 338° |
| 2026-04-24 13:53 | 40.35505 | 20.41373 | 33955 ft | 426 kts | 338° |
| 2026-04-24 13:54 | 40.40827 | 20.37946 | 33951 ft | 426 kts | 338° |
| 2026-04-24 13:54 | 40.46146 | 20.34516 | 33961 ft | 426 kts | 338° |
| 2026-04-24 13:55 | 40.51475 | 20.31074 | 33975 ft | 427 kts | 338° |
| 2026-04-24 13:55 | 40.56728 | 20.27357 | 33984 ft | 430 kts | 334° |
| 2026-04-24 13:56 | 40.61857 | 20.23265 | 33970 ft | 432 kts | 333° |
| 2026-04-24 13:56 | 40.66986 | 20.19137 | 33984 ft | 432 kts | 334° |
| 2026-04-24 13:57 | 40.72116 | 20.15114 | 33991 ft | 432 kts | 334° |
| 2026-04-24 13:57 | 40.77327 | 20.11070 | 33975 ft | 432 kts | 334° |
| 2026-04-24 13:58 | 40.82468 | 20.07068 | 33979 ft | 432 kts | 334° |
| 2026-04-24 13:58 | 40.87644 | 20.03018 | 33978 ft | 433 kts | 334° |
| 2026-04-24 13:59 | 40.92828 | 19.98949 | 33982 ft | 434 kts | 334° |
| 2026-04-24 13:59 | 40.98022 | 19.94872 | 33988 ft | 434 kts | 334° |
| 2026-04-24 14:00 | 41.03218 | 19.90781 | 33996 ft | 435 kts | 334° |
| 2026-04-24 14:00 | 41.08416 | 19.86674 | 34002 ft | 435 kts | 334° |
| 2026-04-24 14:01 | 41.13614 | 19.82558 | 34010 ft | 435 kts | 334° |
| 2026-04-24 14:01 | 41.18811 | 19.78435 | 34002 ft | 435 kts | 334° |
| 2026-04-24 14:02 | 41.23136 | 19.75010 | 34008 ft | 436 kts | 334° |
| 2026-04-24 14:02 | 41.28342 | 19.70878 | 34014 ft | 436 kts | 334° |
| 2026-04-24 14:03 | 41.33553 | 19.66726 | 33995 ft | 437 kts | 334° |
| 2026-04-24 14:03 | 41.38768 | 19.62563 | 34013 ft | 437 kts | 334° |
| 2026-04-24 14:04 | 41.43984 | 19.58392 | 34018 ft | 437 kts | 334° |
| 2026-04-24 14:04 | 41.49201 | 19.54222 | 34021 ft | 437 kts | 334° |
| 2026-04-24 14:05 | 41.54412 | 19.50047 | 34019 ft | 437 kts | 334° |
| 2026-04-24 14:05 | 41.59627 | 19.45859 | 34011 ft | 437 kts | 334° |
| 2026-04-24 14:06 | 41.64838 | 19.41649 | 34014 ft | 438 kts | 334° |
| 2026-04-24 14:06 | 41.70055 | 19.37428 | 34025 ft | 438 kts | 334° |
| 2026-04-24 14:07 | 41.75277 | 19.33206 | 34021 ft | 439 kts | 334° |
| 2026-04-24 14:07 | 41.80542 | 19.29096 | 33998 ft | 437 kts | 337° |
| 2026-04-24 14:08 | 41.85950 | 19.25399 | 34010 ft | 436 kts | 339° |
| 2026-04-24 14:08 | 41.91396 | 19.21791 | 34026 ft | 437 kts | 339° |
| 2026-04-24 14:09 | 41.96825 | 19.18090 | 34022 ft | 438 kts | 338° |
| 2026-04-24 14:09 | 42.02238 | 19.14310 | 34020 ft | 438 kts | 338° |
| 2026-04-24 14:10 | 42.07650 | 19.10526 | 34014 ft | 439 kts | 338° |
| 2026-04-24 14:10 | 42.13075 | 19.06735 | 34019 ft | 439 kts | 338° |
| 2026-04-24 14:11 | 42.18494 | 19.02947 | 34014 ft | 439 kts | 338° |
| 2026-04-24 14:12 | 42.26652 | 18.97235 | 34014 ft | 441 kts | 338° |
| 2026-04-24 14:12 | 42.32088 | 18.93425 | 34023 ft | 440 kts | 338° |
| 2026-04-24 14:13 | 42.37515 | 18.89613 | 34034 ft | 440 kts | 338° |
| 2026-04-24 14:13 | 42.42934 | 18.85783 | 34037 ft | 439 kts | 338° |
| 2026-04-24 14:14 | 42.48316 | 18.81980 | 34042 ft | 439 kts | 338° |
| 2026-04-24 14:14 | 42.56423 | 18.76250 | 34037 ft | 438 kts | 338° |
| 2026-04-24 14:15 | 42.61854 | 18.72398 | 34031 ft | 437 kts | 338° |
| 2026-04-24 14:15 | 42.67198 | 18.68593 | 34026 ft | 436 kts | 338° |
| 2026-04-24 14:16 | 42.72581 | 18.64750 | 34016 ft | 438 kts | 337° |
| 2026-04-24 14:17 | 42.80672 | 18.58961 | 34020 ft | 438 kts | 337° |
| 2026-04-24 14:17 | 42.88771 | 18.53161 | 34023 ft | 439 kts | 337° |
| 2026-04-24 14:18 | 42.94179 | 18.49295 | 34014 ft | 439 kts | 337° |
| 2026-04-24 14:18 | 42.99582 | 18.45414 | 34023 ft | 439 kts | 337° |
| 2026-04-24 14:19 | 43.04983 | 18.41513 | 34015 ft | 439 kts | 336° |
| 2026-04-24 14:19 | 43.10385 | 18.37607 | 34024 ft | 439 kts | 336° |
| 2026-04-24 14:20 | 43.15784 | 18.33692 | 34029 ft | 439 kts | 336° |
| 2026-04-24 14:20 | 43.21179 | 18.29776 | 34043 ft | 439 kts | 337° |
| 2026-04-24 14:21 | 43.26570 | 18.25871 | 34037 ft | 438 kts | 336° |
| 2026-04-24 14:21 | 43.31951 | 18.21948 | 34035 ft | 438 kts | 336° |
| 2026-04-24 14:22 | 43.37322 | 18.18011 | 34034 ft | 438 kts | 336° |
| 2026-04-24 14:23 | 43.45386 | 18.12114 | 34033 ft | 438 kts | 336° |
| 2026-04-24 14:23 | 43.50767 | 18.08181 | 34043 ft | 438 kts | 336° |
| 2026-04-24 14:24 | 43.56144 | 18.04240 | 34051 ft | 438 kts | 336° |
| 2026-04-24 14:24 | 43.61475 | 18.00312 | 34077 ft | 437 kts | 337° |
| 2026-04-24 14:25 | 43.66831 | 17.96351 | 34067 ft | 436 kts | 336° |
| 2026-04-24 14:25 | 43.72177 | 17.92394 | 34063 ft | 435 kts | 336° |
| 2026-04-24 14:26 | 43.77549 | 17.88403 | 34080 ft | 435 kts | 336° |
| 2026-04-24 14:26 | 43.82848 | 17.84469 | 34074 ft | 435 kts | 337° |
| 2026-04-24 14:27 | 43.88213 | 17.80608 | 34073 ft | 434 kts | 338° |
| 2026-04-24 14:27 | 43.93593 | 17.76798 | 34080 ft | 434 kts | 338° |
| 2026-04-24 14:28 | 43.98969 | 17.72971 | 34081 ft | 434 kts | 338° |
| 2026-04-24 14:28 | 44.04327 | 17.69113 | 34090 ft | 433 kts | 337° |
| 2026-04-24 14:29 | 44.09673 | 17.65243 | 34071 ft | 433 kts | 337° |
| 2026-04-24 14:29 | 44.15023 | 17.61374 | 34079 ft | 433 kts | 337° |
| 2026-04-24 14:30 | 44.19465 | 17.58159 | 34080 ft | 433 kts | 337° |
| 2026-04-24 14:30 | 44.25702 | 17.53631 | 34093 ft | 432 kts | 337° |
| 2026-04-24 14:31 | 44.31026 | 17.49760 | 34094 ft | 431 kts | 337° |
| 2026-04-24 14:31 | 44.36350 | 17.45892 | 34096 ft | 431 kts | 337° |
| 2026-04-24 14:32 | 44.41666 | 17.42007 | 34080 ft | 431 kts | 337° |
| 2026-04-24 14:32 | 44.46974 | 17.38119 | 34078 ft | 431 kts | 337° |
| 2026-04-24 14:33 | 44.52244 | 17.34247 | 34085 ft | 430 kts | 337° |
| 2026-04-24 14:33 | 44.57548 | 17.30353 | 34088 ft | 430 kts | 337° |
| 2026-04-24 14:34 | 44.62849 | 17.26460 | 34082 ft | 430 kts | 337° |
| 2026-04-24 14:34 | 44.68145 | 17.22555 | 34074 ft | 430 kts | 337° |
| 2026-04-24 14:35 | 44.73438 | 17.18633 | 34068 ft | 430 kts | 337° |
| 2026-04-24 14:35 | 44.78731 | 17.14710 | 34074 ft | 430 kts | 337° |
| 2026-04-24 14:36 | 44.84024 | 17.10783 | 34077 ft | 430 kts | 337° |
| 2026-04-24 14:36 | 44.89316 | 17.06841 | 34079 ft | 430 kts | 337° |
| 2026-04-24 14:37 | 44.94601 | 17.02898 | 34081 ft | 429 kts | 337° |
| 2026-04-24 14:37 | 44.99882 | 16.98956 | 34048 ft | 430 kts | 336° |
| 2026-04-24 14:38 | 45.05085 | 16.95067 | 34058 ft | 430 kts | 336° |
| 2026-04-24 14:38 | 45.07732 | 16.93081 | 33957 ft | 430 kts | 336° |
| 2026-04-24 14:38 | 45.10376 | 16.91097 | 33806 ft | 431 kts | 336° |
| 2026-04-24 14:38 | 45.13020 | 16.89113 | 33538 ft | 430 kts | 336° |
| 2026-04-24 14:39 | 45.15665 | 16.87129 | 33261 ft | 430 kts | 336° |
| 2026-04-24 14:39 | 45.18299 | 16.85149 | 32705 ft | 428 kts | 336° |
| 2026-04-24 14:39 | 45.20915 | 16.83176 | 32145 ft | 424 kts | 336° |
| 2026-04-24 14:39 | 45.23509 | 16.81217 | 31616 ft | 420 kts | 335° |
| 2026-04-24 14:40 | 45.26076 | 16.79279 | 31061 ft | 417 kts | 335° |
| 2026-04-24 14:40 | 45.28625 | 16.77350 | 30529 ft | 413 kts | 335° |
| 2026-04-24 14:40 | 45.31152 | 16.75436 | 30025 ft | 409 kts | 335° |
| 2026-04-24 14:40 | 45.33653 | 16.73537 | 29736 ft | 408 kts | 335° |
| 2026-04-24 14:41 | 45.36142 | 16.71646 | 29455 ft | 407 kts | 335° |
| 2026-04-24 14:41 | 45.38633 | 16.69754 | 29174 ft | 405 kts | 335° |
| 2026-04-24 14:41 | 45.41112 | 16.67870 | 28900 ft | 404 kts | 335° |
| 2026-04-24 14:41 | 45.43585 | 16.65991 | 28621 ft | 402 kts | 334° |
| 2026-04-24 14:42 | 45.45215 | 16.64749 | 28444 ft | 401 kts | 334° |
| 2026-04-24 14:42 | 45.48493 | 16.62249 | 28081 ft | 398 kts | 334° |
| 2026-04-24 14:42 | 45.50932 | 16.60386 | 27815 ft | 397 kts | 334° |
| 2026-04-24 14:42 | 45.53360 | 16.58533 | 27553 ft | 395 kts | 334° |
| 2026-04-24 14:43 | 45.55782 | 16.56689 | 27277 ft | 394 kts | 334° |
| 2026-04-24 14:43 | 45.58197 | 16.54848 | 27013 ft | 393 kts | 334° |
| 2026-04-24 14:43 | 45.60605 | 16.53009 | 26764 ft | 392 kts | 334° |
| 2026-04-24 14:43 | 45.63006 | 16.51170 | 26522 ft | 391 kts | 334° |
| 2026-04-24 14:44 | 45.65394 | 16.49335 | 26259 ft | 389 kts | 334° |
| 2026-04-24 14:44 | 45.67773 | 16.47502 | 26004 ft | 388 kts | 334° |
| 2026-04-24 14:44 | 45.70112 | 16.45699 | 25761 ft | 386 kts | 334° |
| 2026-04-24 14:44 | 45.72507 | 16.43853 | 25515 ft | 385 kts | 334° |
| 2026-04-24 14:45 | 45.74829 | 16.42065 | 25272 ft | 384 kts | 334° |
| 2026-04-24 14:45 | 45.77176 | 16.40253 | 25037 ft | 382 kts | 334° |
| 2026-04-24 14:45 | 45.79512 | 16.38450 | 24801 ft | 381 kts | 334° |
| 2026-04-24 14:45 | 45.81839 | 16.36655 | 24565 ft | 379 kts | 334° |
| 2026-04-24 14:46 | 45.84158 | 16.34865 | 24324 ft | 378 kts | 334° |
| 2026-04-24 14:46 | 45.86469 | 16.33077 | 24092 ft | 377 kts | 334° |
| 2026-04-24 14:46 | 45.88777 | 16.31289 | 23857 ft | 376 kts | 333° |
| 2026-04-24 14:46 | 45.91052 | 16.29517 | 23515 ft | 369 kts | 333° |
| 2026-04-24 14:47 | 45.92565 | 16.28324 | 23188 ft | 365 kts | 333° |
| 2026-04-24 14:47 | 45.95478 | 16.26009 | 22608 ft | 357 kts | 333° |
| 2026-04-24 14:47 | 45.97634 | 16.24288 | 22171 ft | 352 kts | 333° |
| 2026-04-24 14:47 | 45.99765 | 16.22587 | 21735 ft | 348 kts | 333° |
| 2026-04-24 14:48 | 46.01866 | 16.20911 | 21309 ft | 343 kts | 333° |
| 2026-04-24 14:48 | 46.03947 | 16.19255 | 20874 ft | 340 kts | 333° |
| 2026-04-24 14:48 | 46.06004 | 16.17620 | 20448 ft | 336 kts | 333° |
| 2026-04-24 14:48 | 46.08043 | 16.15999 | 20015 ft | 333 kts | 333° |
| 2026-04-24 14:49 | 46.10059 | 16.14394 | 19598 ft | 330 kts | 333° |
| 2026-04-24 14:49 | 46.12058 | 16.12799 | 19181 ft | 327 kts | 333° |
| 2026-04-24 14:49 | 46.14037 | 16.11217 | 18773 ft | 324 kts | 333° |
| 2026-04-24 14:49 | 46.15999 | 16.09648 | 18341 ft | 321 kts | 333° |
| 2026-04-24 14:50 | 46.17943 | 16.08092 | 17902 ft | 318 kts | 333° |
| 2026-04-24 14:50 | 46.19862 | 16.06552 | 17508 ft | 313 kts | 333° |
| 2026-04-24 14:50 | 46.21144 | 16.05523 | 17238 ft | 311 kts | 333° |
| 2026-04-24 14:50 | 46.23004 | 16.04029 | 16861 ft | 309 kts | 333° |
| 2026-04-24 14:51 | 46.24880 | 16.02521 | 16479 ft | 308 kts | 333° |
| 2026-04-24 14:51 | 46.26745 | 16.01025 | 16093 ft | 306 kts | 332° |
| 2026-04-24 14:51 | 46.28598 | 15.99538 | 15721 ft | 304 kts | 332° |
| 2026-04-24 14:51 | 46.30437 | 15.98062 | 15339 ft | 301 kts | 332° |
| 2026-04-24 14:52 | 46.32267 | 15.96594 | 14969 ft | 300 kts | 332° |
| 2026-04-24 14:52 | 46.34086 | 15.95132 | 14589 ft | 299 kts | 332° |
| 2026-04-24 14:52 | 46.35898 | 15.93671 | 14215 ft | 297 kts | 332° |
| 2026-04-24 14:52 | 46.37700 | 15.92217 | 13831 ft | 296 kts | 332° |
| 2026-04-24 14:53 | 46.39494 | 15.90768 | 13433 ft | 294 kts | 332° |
| 2026-04-24 14:53 | 46.41271 | 15.89328 | 13051 ft | 291 kts | 332° |
| 2026-04-24 14:53 | 46.43032 | 15.87899 | 12678 ft | 289 kts | 332° |
| 2026-04-24 14:53 | 46.44776 | 15.86485 | 12304 ft | 286 kts | 332° |
| 2026-04-24 14:54 | 46.46506 | 15.85087 | 11928 ft | 283 kts | 332° |
| 2026-04-24 14:54 | 46.48218 | 15.83700 | 11569 ft | 281 kts | 332° |
| 2026-04-24 14:54 | 46.49913 | 15.82324 | 11205 ft | 278 kts | 331° |
| 2026-04-24 14:54 | 46.51595 | 15.80960 | 10831 ft | 275 kts | 331° |
| 2026-04-24 14:55 | 46.53256 | 15.79611 | 10474 ft | 272 kts | 331° |
| 2026-04-24 14:55 | 46.54888 | 15.78280 | 10261 ft | 265 kts | 330° |
| 2026-04-24 14:55 | 46.56452 | 15.77008 | 10156 ft | 265 kts | 331° |
| 2026-04-24 14:55 | 46.58090 | 15.75679 | 10042 ft | 265 kts | 331° |
| 2026-04-24 14:56 | 46.59701 | 15.74370 | 9683 ft | 267 kts | 331° |
| 2026-04-24 14:56 | 46.61323 | 15.73047 | 9221 ft | 266 kts | 330° |
| 2026-04-24 14:56 | 46.62941 | 15.71727 | 8751 ft | 266 kts | 330° |
| 2026-04-24 14:56 | 46.64552 | 15.70417 | 8278 ft | 266 kts | 330° |
| 2026-04-24 14:57 | 46.66162 | 15.69105 | 7837 ft | 265 kts | 330° |
| 2026-04-24 14:57 | 46.67762 | 15.67800 | 7398 ft | 264 kts | 330° |
| 2026-04-24 14:57 | 46.69354 | 15.66491 | 6973 ft | 261 kts | 330° |
| 2026-04-24 14:57 | 46.70879 | 15.65122 | 6463 ft | 256 kts | 321° |
| 2026-04-24 14:58 | 46.72190 | 15.63354 | 5994 ft | 258 kts | 315° |
| 2026-04-24 14:58 | 46.73451 | 15.61533 | 5547 ft | 252 kts | 315° |
| 2026-04-24 14:58 | 46.74693 | 15.59749 | 5115 ft | 251 kts | 316° |
| 2026-04-24 14:58 | 46.75931 | 15.57971 | 4743 ft | 244 kts | 316° |
| 2026-04-24 14:59 | 46.77092 | 15.56298 | 4495 ft | 223 kts | 316° |
| 2026-04-24 14:59 | 46.78175 | 15.54739 | 4451 ft | 216 kts | 316° |
| 2026-04-24 14:59 | 46.79241 | 15.53207 | 4400 ft | 214 kts | 316° |
| 2026-04-24 14:59 | 46.80303 | 15.51681 | 4317 ft | 214 kts | 316° |
| 2026-04-24 15:00 | 46.81358 | 15.50163 | 4226 ft | 209 kts | 316° |
| 2026-04-24 15:00 | 46.82437 | 15.48874 | 4081 ft | 196 kts | 330° |
| 2026-04-24 15:00 | 46.83684 | 15.48194 | 3858 ft | 189 kts | 349° |
| 2026-04-24 15:00 | 46.84960 | 15.47846 | 3614 ft | 185 kts | 349° |
| 2026-04-24 15:01 | 46.86213 | 15.47502 | 3391 ft | 182 kts | 349° |
| 2026-04-24 15:01 | 46.87442 | 15.47165 | 3146 ft | 175 kts | 350° |
| 2026-04-24 15:01 | 46.88587 | 15.46851 | 2928 ft | 165 kts | 349° |
| 2026-04-24 15:01 | 46.89690 | 15.46549 | 2722 ft | 155 kts | 349° |
| 2026-04-24 15:02 | 46.90729 | 15.46264 | 2514 ft | 151 kts | 349° |
| 2026-04-24 15:02 | 46.91730 | 15.45990 | 2325 ft | 147 kts | 350° |
| 2026-04-24 15:02 | 46.92739 | 15.45715 | 2126 ft | 148 kts | 350° |
| 2026-04-24 15:02 | 46.93742 | 15.45449 | 1947 ft | 147 kts | 349° |
| 2026-04-24 15:03 | 46.94747 | 15.45162 | 1739 ft | 148 kts | 349° |
| 2026-04-24 15:03 | 46.95766 | 15.44883 | 1537 ft | 149 kts | 349° |
| 2026-04-24 15:03 | 46.96791 | 15.44601 | 1354 ft | 150 kts | 349° |
| 2026-04-24 15:03 | 46.97820 | 15.44316 | 1160 ft | 150 kts | 349° |
| 2026-04-24 15:04 | 46.98814 | 15.44041 | 1104 ft | 133 kts | 348° |
| 2026-04-24 15:04 | 46.99516 | 15.43851 | 1112 ft | 76 kts | 349° |
| 2026-04-24 15:04 | 46.99886 | 15.43749 | 1111 ft | 42 kts | 349° |
| 2026-04-24 15:04 | 47.00159 | 15.43673 | 1118 ft | 38 kts | 349° |
| 2026-04-24 15:05 | 47.00324 | 15.43628 | 1119 ft | 15 kts | 349° |
| 2026-04-24 15:05 | 47.00411 | 15.43623 | 1123 ft | 11 kts | 31° |
| 2026-04-24 15:05 | 47.00433 | 15.43726 | 1125 ft | 12 kts | 91° |
| 2026-04-24 15:05 | 47.00397 | 15.43830 | 1122 ft | 12 kts | 124° |
| 2026-04-24 15:06 | 47.00352 | 15.43926 | 1118 ft | 11 kts | 124° |
| 2026-04-24 15:06 | 47.00288 | 15.44037 | 1118 ft | 15 kts | 151° |
| 2026-04-24 15:06 | 47.00183 | 15.44071 | 1119 ft | 16 kts | 170° |
| 2026-04-24 15:06 | 47.00073 | 15.44100 | 1117 ft | 16 kts | 169° |
| 2026-04-24 15:07 | 46.99962 | 15.44130 | 1115 ft | 16 kts | 170° |
| 2026-04-24 15:07 | 46.99873 | 15.44154 | 1110 ft | 10 kts | 169° |
| 2026-04-24 15:07 | 46.99815 | 15.44190 | 1116 ft | 8 kts | 124° |
| 2026-04-24 15:07 | 46.99816 | 15.44268 | 1114 ft | 7 kts | 79° |
| 2026-04-24 15:08 | 46.99825 | 15.44334 | 1110 ft | 6 kts | 78° |
| 2026-04-24 15:08 | 46.99814 | 15.44368 | 1111 ft | 4 kts | 135° |
| 2026-04-24 15:08 | 46.99782 | 15.44383 | 1110 ft | 5 kts | 168° |
| 2026-04-24 15:08 | 46.99761 | 15.44389 | 1112 ft | 0 kts | 169° |